sensor_id;sensor_type;location;lat;lon;timestamp;temperature;humidity
70089;HTU21D;57460;47.134;19.888;2022-08-01T00:00:43;20.27;53.93
70089;HTU21D;57460;47.134;19.888;2022-08-01T00:03:08;20.09;54.35
70089;HTU21D;57460;47.134;19.888;2022-08-01T00:05:34;20.01;55.02
70089;HTU21D;57460;47.134;19.888;2022-08-01T00:08:00;19.98;53.51
70089;HTU21D;57460;47.134;19.888;2022-08-01T00:10:26;19.94;53.33
70089;HTU21D;57460;47.134;19.888;2022-08-01T00:12:51;19.92;55.44
70089;HTU21D;57460;47.134;19.888;2022-08-01T00:18:10;19.75;54.79
70089;HTU21D;57460;47.134;19.888;2022-08-01T00:20:36;19.72;56.45
70089;HTU21D;57460;47.134;19.888;2022-08-01T00:23:03;19.71;53.81
70089;HTU21D;57460;47.134;19.888;2022-08-01T00:25:28;19.62;56.71
70089;HTU21D;57460;47.134;19.888;2022-08-01T00:27:54;19.54;56.65
70089;HTU21D;57460;47.134;19.888;2022-08-01T00:30:20;19.44;57.37
70089;HTU21D;57460;47.134;19.888;2022-08-01T00:32:46;19.36;57.43
70089;HTU21D;57460;47.134;19.888;2022-08-01T00:35:11;19.31;58.09
70089;HTU21D;57460;47.134;19.888;2022-08-01T00:37:38;19.33;58.10
70089;HTU21D;57460;47.134;19.888;2022-08-01T00:40:05;19.40;55.40
70089;HTU21D;57460;47.134;19.888;2022-08-01T00:42:32;19.46;56.10
70089;HTU21D;57460;47.134;19.888;2022-08-01T00:44:57;19.43;57.88
70089;HTU21D;57460;47.134;19.888;2022-08-01T00:47:23;19.42;56.82
70089;HTU21D;57460;47.134;19.888;2022-08-01T00:49:49;19.38;58.11
70089;HTU21D;57460;47.134;19.888;2022-08-01T00:52:15;19.38;57.57
70089;HTU21D;57460;47.134;19.888;2022-08-01T00:54:44;19.38;58.47
70089;HTU21D;57460;47.134;19.888;2022-08-01T00:57:18;19.39;57.75
70089;HTU21D;57460;47.134;19.888;2022-08-01T00:59:51;19.42;56.97
70089;HTU21D;57460;47.134;19.888;2022-08-01T01:02:18;19.41;57.93
70089;HTU21D;57460;47.134;19.888;2022-08-01T01:04:44;19.43;57.66
70089;HTU21D;57460;47.134;19.888;2022-08-01T01:10:09;19.41;58.30
70089;HTU21D;57460;47.134;19.888;2022-08-01T01:13:23;19.42;57.22
70089;HTU21D;57460;47.134;19.888;2022-08-01T01:16:15;19.32;57.84
70089;HTU21D;57460;47.134;19.888;2022-08-01T01:18:53;19.29;55.67
70089;HTU21D;57460;47.134;19.888;2022-08-01T01:29:40;19.26;58.25
70089;HTU21D;57460;47.134;19.888;2022-08-01T01:32:26;19.28;58.14
70089;HTU21D;57460;47.134;19.888;2022-08-01T01:34:56;19.30;56.15
70089;HTU21D;57460;47.134;19.888;2022-08-01T01:37:26;19.37;56.39
70089;HTU21D;57460;47.134;19.888;2022-08-01T01:39:56;19.37;56.96
70089;HTU21D;57460;47.134;19.888;2022-08-01T01:42:25;19.36;55.54
70089;HTU21D;57460;47.134;19.888;2022-08-01T01:44:54;19.35;57.19
70089;HTU21D;57460;47.134;19.888;2022-08-01T01:47:23;19.28;56.78
70089;HTU21D;57460;47.134;19.888;2022-08-01T01:49:53;19.24;56.52
70089;HTU21D;57460;47.134;19.888;2022-08-01T01:52:24;19.18;57.25
70089;HTU21D;57460;47.134;19.888;2022-08-01T01:54:54;19.10;58.00
70089;HTU21D;57460;47.134;19.888;2022-08-01T01:57:33;18.98;59.03
70089;HTU21D;57460;47.134;19.888;2022-08-01T02:00:02;18.86;59.68
70089;HTU21D;57460;47.134;19.888;2022-08-01T02:02:29;18.74;59.42
70089;HTU21D;57460;47.134;19.888;2022-08-01T02:04:57;18.68;58.34
70089;HTU21D;57460;47.134;19.888;2022-08-01T02:07:28;18.59;57.74
70089;HTU21D;57460;47.134;19.888;2022-08-01T02:09:56;18.56;57.47
70089;HTU21D;57460;47.134;19.888;2022-08-01T02:12:24;18.55;58.23
70089;HTU21D;57460;47.134;19.888;2022-08-01T02:14:53;18.51;57.37
70089;HTU21D;57460;47.134;19.888;2022-08-01T02:17:21;18.44;58.92
70089;HTU21D;57460;47.134;19.888;2022-08-01T02:19:49;18.37;57.24
70089;HTU21D;57460;47.134;19.888;2022-08-01T02:22:29;18.27;58.95
70089;HTU21D;57460;47.134;19.888;2022-08-01T02:25:09;18.18;58.74
70089;HTU21D;57460;47.134;19.888;2022-08-01T02:27:43;18.11;58.64
70089;HTU21D;57460;47.134;19.888;2022-08-01T02:30:13;18.05;58.19
70089;HTU21D;57460;47.134;19.888;2022-08-01T02:32:47;18.03;58.00
70089;HTU21D;57460;47.134;19.888;2022-08-01T02:35:26;17.94;59.66
70089;HTU21D;57460;47.134;19.888;2022-08-01T02:37:55;17.87;57.77
70089;HTU21D;57460;47.134;19.888;2022-08-01T02:40:22;17.78;58.50
70089;HTU21D;57460;47.134;19.888;2022-08-01T02:43:09;17.69;60.64
70089;HTU21D;57460;47.134;19.888;2022-08-01T02:45:52;17.54;59.84
70089;HTU21D;57460;47.134;19.888;2022-08-01T02:48:25;17.44;61.72
70089;HTU21D;57460;47.134;19.888;2022-08-01T02:53:39;17.09;61.64
70089;HTU21D;57460;47.134;19.888;2022-08-01T03:00:00;16.96;60.27
70089;HTU21D;57460;47.134;19.888;2022-08-01T03:02:43;16.88;60.76
70089;HTU21D;57460;47.134;19.888;2022-08-01T03:05:14;16.82;60.75
70089;HTU21D;57460;47.134;19.888;2022-08-01T03:08:15;16.78;61.63
70089;HTU21D;57460;47.134;19.888;2022-08-01T03:10:51;16.76;59.76
70089;HTU21D;57460;47.134;19.888;2022-08-01T03:13:32;16.59;66.01
70089;HTU21D;57460;47.134;19.888;2022-08-01T03:16:43;16.37;66.62
70089;HTU21D;57460;47.134;19.888;2022-08-01T03:23:07;15.96;67.85
70089;HTU21D;57460;47.134;19.888;2022-08-01T03:25:36;15.81;69.42
70089;HTU21D;57460;47.134;19.888;2022-08-01T03:28:06;15.72;68.10
70089;HTU21D;57460;47.134;19.888;2022-08-01T03:30:37;15.67;67.72
70089;HTU21D;57460;47.134;19.888;2022-08-01T03:33:07;15.60;64.95
70089;HTU21D;57460;47.134;19.888;2022-08-01T03:35:39;15.51;68.35
70089;HTU21D;57460;47.134;19.888;2022-08-01T03:38:13;15.46;68.26
70089;HTU21D;57460;47.134;19.888;2022-08-01T03:40:55;15.44;71.86
70089;HTU21D;57460;47.134;19.888;2022-08-01T03:43:38;15.49;69.58
70089;HTU21D;57460;47.134;19.888;2022-08-01T03:46:12;15.53;71.72
70089;HTU21D;57460;47.134;19.888;2022-08-01T03:48:47;15.62;64.78
70089;HTU21D;57460;47.134;19.888;2022-08-01T03:51:15;15.67;65.24
70089;HTU21D;57460;47.134;19.888;2022-08-01T03:53:42;15.75;67.38
70089;HTU21D;57460;47.134;19.888;2022-08-01T03:56:10;15.88;65.94
70089;HTU21D;57460;47.134;19.888;2022-08-01T03:58:41;15.98;67.06
70089;HTU21D;57460;47.134;19.888;2022-08-01T04:01:08;16.11;67.60
70089;HTU21D;57460;47.134;19.888;2022-08-01T04:03:37;16.19;64.61
70089;HTU21D;57460;47.134;19.888;2022-08-01T04:06:07;16.30;65.29
70089;HTU21D;57460;47.134;19.888;2022-08-01T04:08:36;16.35;65.24
70089;HTU21D;57460;47.134;19.888;2022-08-01T04:11:03;16.45;65.88
70089;HTU21D;57460;47.134;19.888;2022-08-01T04:13:30;16.51;66.40
70089;HTU21D;57460;47.134;19.888;2022-08-01T04:15:56;16.54;67.09
70089;HTU21D;57460;47.134;19.888;2022-08-01T04:18:22;16.52;67.07
70089;HTU21D;57460;47.134;19.888;2022-08-01T04:20:47;16.59;68.39
70089;HTU21D;57460;47.134;19.888;2022-08-01T04:23:17;16.69;67.20
70089;HTU21D;57460;47.134;19.888;2022-08-01T04:25:48;16.76;67.97
70089;HTU21D;57460;47.134;19.888;2022-08-01T04:28:16;16.82;67.84
70089;HTU21D;57460;47.134;19.888;2022-08-01T04:30:46;16.93;68.10
70089;HTU21D;57460;47.134;19.888;2022-08-01T04:33:16;16.98;68.83
70089;HTU21D;57460;47.134;19.888;2022-08-01T04:35:45;17.08;65.67
70089;HTU21D;57460;47.134;19.888;2022-08-01T04:38:15;17.17;67.99
70089;HTU21D;57460;47.134;19.888;2022-08-01T04:40:44;17.19;66.58
70089;HTU21D;57460;47.134;19.888;2022-08-01T04:43:13;17.31;64.36
70089;HTU21D;57460;47.134;19.888;2022-08-01T04:45:40;17.40;67.08
70089;HTU21D;57460;47.134;19.888;2022-08-01T04:48:10;17.45;65.99
70089;HTU21D;57460;47.134;19.888;2022-08-01T04:50:36;17.61;62.95
70089;HTU21D;57460;47.134;19.888;2022-08-01T04:53:03;17.70;66.30
70089;HTU21D;57460;47.134;19.888;2022-08-01T04:55:29;17.79;65.66
70089;HTU21D;57460;47.134;19.888;2022-08-01T04:57:56;17.93;64.49
70089;HTU21D;57460;47.134;19.888;2022-08-01T05:00:22;18.00;65.21
70089;HTU21D;57460;47.134;19.888;2022-08-01T05:02:48;18.13;64.25
70089;HTU21D;57460;47.134;19.888;2022-08-01T05:05:13;18.24;64.73
70089;HTU21D;57460;47.134;19.888;2022-08-01T05:07:40;18.34;62.60
70089;HTU21D;57460;47.134;19.888;2022-08-01T05:10:06;18.47;61.31
70089;HTU21D;57460;47.134;19.888;2022-08-01T05:12:32;18.54;63.18
70089;HTU21D;57460;47.134;19.888;2022-08-01T05:14:59;18.63;61.86
70089;HTU21D;57460;47.134;19.888;2022-08-01T05:17:25;18.78;63.11
70089;HTU21D;57460;47.134;19.888;2022-08-01T05:19:51;18.89;60.85
70089;HTU21D;57460;47.134;19.888;2022-08-01T05:22:38;18.96;61.83
70089;HTU21D;57460;47.134;19.888;2022-08-01T05:25:04;19.05;62.37
70089;HTU21D;57460;47.134;19.888;2022-08-01T05:27:31;19.15;63.76
70089;HTU21D;57460;47.134;19.888;2022-08-01T05:29:57;19.35;60.28
70089;HTU21D;57460;47.134;19.888;2022-08-01T05:32:22;19.46;60.70
70089;HTU21D;57460;47.134;19.888;2022-08-01T05:34:57;19.60;60.23
70089;HTU21D;57460;47.134;19.888;2022-08-01T05:37:23;19.67;60.70
70089;HTU21D;57460;47.134;19.888;2022-08-01T05:39:49;19.85;59.57
70089;HTU21D;57460;47.134;19.888;2022-08-01T05:42:14;20.03;59.13
70089;HTU21D;57460;47.134;19.888;2022-08-01T05:44:43;20.19;60.14
70089;HTU21D;57460;47.134;19.888;2022-08-01T05:47:09;20.54;58.26
70089;HTU21D;57460;47.134;19.888;2022-08-01T05:49:35;20.81;57.26
70089;HTU21D;57460;47.134;19.888;2022-08-01T05:52:01;20.84;57.26
70089;HTU21D;57460;47.134;19.888;2022-08-01T05:54:29;21.00;57.62
70089;HTU21D;57460;47.134;19.888;2022-08-01T05:56:55;21.08;56.96
70089;HTU21D;57460;47.134;19.888;2022-08-01T05:59:25;21.23;56.32
70089;HTU21D;57460;47.134;19.888;2022-08-01T06:01:55;21.50;56.00
70089;HTU21D;57460;47.134;19.888;2022-08-01T06:04:21;21.65;55.82
70089;HTU21D;57460;47.134;19.888;2022-08-01T06:06:47;21.84;54.81
70089;HTU21D;57460;47.134;19.888;2022-08-01T06:09:13;21.95;53.46
70089;HTU21D;57460;47.134;19.888;2022-08-01T06:11:40;21.99;54.53
70089;HTU21D;57460;47.134;19.888;2022-08-01T06:14:05;22.21;53.59
70089;HTU21D;57460;47.134;19.888;2022-08-01T06:16:38;22.27;52.08
70089;HTU21D;57460;47.134;19.888;2022-08-01T06:21:58;22.57;52.54
70089;HTU21D;57460;47.134;19.888;2022-08-01T06:24:23;22.60;51.53
70089;HTU21D;57460;47.134;19.888;2022-08-01T06:26:49;22.70;52.21
70089;HTU21D;57460;47.134;19.888;2022-08-01T06:29:15;22.77;52.56
70089;HTU21D;57460;47.134;19.888;2022-08-01T06:31:41;22.98;52.29
70089;HTU21D;57460;47.134;19.888;2022-08-01T06:34:07;22.90;49.33
70089;HTU21D;57460;47.134;19.888;2022-08-01T06:36:42;22.95;51.97
70089;HTU21D;57460;47.134;19.888;2022-08-01T06:39:08;23.11;51.42
70089;HTU21D;57460;47.134;19.888;2022-08-01T06:41:34;23.13;50.76
70089;HTU21D;57460;47.134;19.888;2022-08-01T06:44:00;23.37;51.59
70089;HTU21D;57460;47.134;19.888;2022-08-01T06:46:27;23.49;51.01
70089;HTU21D;57460;47.134;19.888;2022-08-01T06:48:53;23.66;49.58
70089;HTU21D;57460;47.134;19.888;2022-08-01T06:51:19;23.70;49.32
70089;HTU21D;57460;47.134;19.888;2022-08-01T06:53:46;23.84;49.14
70089;HTU21D;57460;47.134;19.888;2022-08-01T06:56:11;23.87;49.12
70089;HTU21D;57460;47.134;19.888;2022-08-01T06:58:37;23.98;48.45
70089;HTU21D;57460;47.134;19.888;2022-08-01T07:01:05;24.13;47.94
70089;HTU21D;57460;47.134;19.888;2022-08-01T07:03:34;24.49;48.07
70089;HTU21D;57460;47.134;19.888;2022-08-01T07:06:00;24.44;47.10
70089;HTU21D;57460;47.134;19.888;2022-08-01T07:08:26;24.56;47.23
70089;HTU21D;57460;47.134;19.888;2022-08-01T07:10:52;24.57;47.25
70089;HTU21D;57460;47.134;19.888;2022-08-01T07:13:17;24.78;46.52
70089;HTU21D;57460;47.134;19.888;2022-08-01T07:15:47;24.97;46.12
70089;HTU21D;57460;47.134;19.888;2022-08-01T07:18:13;25.00;45.64
70089;HTU21D;57460;47.134;19.888;2022-08-01T07:20:39;25.08;45.40
70089;HTU21D;57460;47.134;19.888;2022-08-01T07:23:04;25.15;45.17
70089;HTU21D;57460;47.134;19.888;2022-08-01T07:25:30;25.16;45.38
70089;HTU21D;57460;47.134;19.888;2022-08-01T07:27:56;25.02;43.96
70089;HTU21D;57460;47.134;19.888;2022-08-01T07:30:22;25.20;45.40
70089;HTU21D;57460;47.134;19.888;2022-08-01T07:32:48;25.49;44.91
70089;HTU21D;57460;47.134;19.888;2022-08-01T07:35:13;25.63;44.45
70089;HTU21D;57460;47.134;19.888;2022-08-01T07:37:39;25.80;44.64
70089;HTU21D;57460;47.134;19.888;2022-08-01T07:40:05;25.86;44.67
70089;HTU21D;57460;47.134;19.888;2022-08-01T07:42:34;25.91;40.51
70089;HTU21D;57460;47.134;19.888;2022-08-01T07:45:00;26.09;42.23
70089;HTU21D;57460;47.134;19.888;2022-08-01T07:47:26;26.40;42.49
70089;HTU21D;57460;47.134;19.888;2022-08-01T07:49:59;26.34;41.35
70089;HTU21D;57460;47.134;19.888;2022-08-01T07:52:26;26.39;41.17
70089;HTU21D;57460;47.134;19.888;2022-08-01T07:54:52;26.52;41.79
70089;HTU21D;57460;47.134;19.888;2022-08-01T07:57:18;26.54;42.00
70089;HTU21D;57460;47.134;19.888;2022-08-01T07:59:44;26.77;40.59
70089;HTU21D;57460;47.134;19.888;2022-08-01T08:02:09;26.66;41.02
70089;HTU21D;57460;47.134;19.888;2022-08-01T08:04:35;26.84;40.41
70089;HTU21D;57460;47.134;19.888;2022-08-01T08:07:02;27.23;39.75
70089;HTU21D;57460;47.134;19.888;2022-08-01T08:09:28;27.19;37.97
70089;HTU21D;57460;47.134;19.888;2022-08-01T08:12:04;27.30;39.40
70089;HTU21D;57460;47.134;19.888;2022-08-01T08:14:30;27.37;39.23
70089;HTU21D;57460;47.134;19.888;2022-08-01T08:16:55;27.52;39.32
70089;HTU21D;57460;47.134;19.888;2022-08-01T08:19:21;27.66;38.59
70089;HTU21D;57460;47.134;19.888;2022-08-01T08:21:50;27.80;35.54
70089;HTU21D;57460;47.134;19.888;2022-08-01T08:24:16;28.19;37.46
70089;HTU21D;57460;47.134;19.888;2022-08-01T08:26:55;28.35;36.30
70089;HTU21D;57460;47.134;19.888;2022-08-01T08:29:21;28.33;36.76
70089;HTU21D;57460;47.134;19.888;2022-08-01T08:31:48;28.53;36.29
70089;HTU21D;57460;47.134;19.888;2022-08-01T08:34:15;28.62;35.92
70089;HTU21D;57460;47.134;19.888;2022-08-01T08:36:41;28.77;34.87
70089;HTU21D;57460;47.134;19.888;2022-08-01T08:39:07;28.92;35.11
70089;HTU21D;57460;47.134;19.888;2022-08-01T08:41:33;29.04;34.79
70089;HTU21D;57460;47.134;19.888;2022-08-01T08:44:06;29.15;32.57
70089;HTU21D;57460;47.134;19.888;2022-08-01T08:46:33;29.20;33.13
70089;HTU21D;57460;47.134;19.888;2022-08-01T08:49:06;29.18;33.30
70089;HTU21D;57460;47.134;19.888;2022-08-01T08:51:35;29.11;33.64
70089;HTU21D;57460;47.134;19.888;2022-08-01T08:54:05;29.44;32.93
70089;HTU21D;57460;47.134;19.888;2022-08-01T08:56:32;29.63;31.86
70089;HTU21D;57460;47.134;19.888;2022-08-01T08:59:01;29.62;32.28
70089;HTU21D;57460;47.134;19.888;2022-08-01T09:01:27;29.74;31.80
70089;HTU21D;57460;47.134;19.888;2022-08-01T09:03:53;29.65;32.33
70089;HTU21D;57460;47.134;19.888;2022-08-01T09:06:19;29.74;32.10
70089;HTU21D;57460;47.134;19.888;2022-08-01T09:08:46;30.05;32.73
70089;HTU21D;57460;47.134;19.888;2022-08-01T09:11:12;30.19;31.96
70089;HTU21D;57460;47.134;19.888;2022-08-01T09:13:38;30.30;31.99
70089;HTU21D;57460;47.134;19.888;2022-08-01T09:16:05;30.49;31.45
70089;HTU21D;57460;47.134;19.888;2022-08-01T09:18:34;30.66;30.23
70089;HTU21D;57460;47.134;19.888;2022-08-01T09:26:12;31.01;28.87
70089;HTU21D;57460;47.134;19.888;2022-08-01T09:28:40;31.08;29.78
70089;HTU21D;57460;47.134;19.888;2022-08-01T09:31:17;31.27;29.32
70089;HTU21D;57460;47.134;19.888;2022-08-01T09:33:54;31.50;29.48
70089;HTU21D;57460;47.134;19.888;2022-08-01T09:36:23;31.53;26.34
70089;HTU21D;57460;47.134;19.888;2022-08-01T09:38:50;31.21;29.19
70089;HTU21D;57460;47.134;19.888;2022-08-01T09:41:17;31.53;28.00
70089;HTU21D;57460;47.134;19.888;2022-08-01T09:43:53;31.54;28.46
70089;HTU21D;57460;47.134;19.888;2022-08-01T09:46:19;31.64;28.72
70089;HTU21D;57460;47.134;19.888;2022-08-01T09:49:00;31.89;29.55
70089;HTU21D;57460;47.134;19.888;2022-08-01T09:51:35;32.24;28.29
70089;HTU21D;57460;47.134;19.888;2022-08-01T09:54:03;32.46;26.40
70089;HTU21D;57460;47.134;19.888;2022-08-01T09:56:41;32.23;26.21
70089;HTU21D;57460;47.134;19.888;2022-08-01T09:59:09;32.17;26.77
70089;HTU21D;57460;47.134;19.888;2022-08-01T10:01:49;32.29;27.08
70089;HTU21D;57460;47.134;19.888;2022-08-01T10:04:18;32.54;25.72
70089;HTU21D;57460;47.134;19.888;2022-08-01T10:06:50;32.76;26.52
70089;HTU21D;57460;47.134;19.888;2022-08-01T10:09:29;33.07;26.05
70089;HTU21D;57460;47.134;19.888;2022-08-01T10:11:56;33.26;24.56
70089;HTU21D;57460;47.134;19.888;2022-08-01T10:14:25;33.31;24.97
70089;HTU21D;57460;47.134;19.888;2022-08-01T10:16:53;33.29;24.98
70089;HTU21D;57460;47.134;19.888;2022-08-01T10:19:23;33.58;24.89
70089;HTU21D;57460;47.134;19.888;2022-08-01T10:21:54;33.64;24.83
70089;HTU21D;57460;47.134;19.888;2022-08-01T10:24:20;33.79;24.75
70089;HTU21D;57460;47.134;19.888;2022-08-01T10:26:52;33.88;23.31
70089;HTU21D;57460;47.134;19.888;2022-08-01T10:29:21;34.07;23.81
70089;HTU21D;57460;47.134;19.888;2022-08-01T10:31:48;33.85;21.14
70089;HTU21D;57460;47.134;19.888;2022-08-01T10:34:16;33.65;24.08
70089;HTU21D;57460;47.134;19.888;2022-08-01T10:36:47;33.55;22.80
70089;HTU21D;57460;47.134;19.888;2022-08-01T10:39:14;33.67;24.45
70089;HTU21D;57460;47.134;19.888;2022-08-01T10:41:40;33.76;23.96
70089;HTU21D;57460;47.134;19.888;2022-08-01T10:44:07;33.71;23.64
70089;HTU21D;57460;47.134;19.888;2022-08-01T10:46:38;33.74;24.43
70089;HTU21D;57460;47.134;19.888;2022-08-01T10:49:26;33.99;24.69
70089;HTU21D;57460;47.134;19.888;2022-08-01T10:51:54;34.26;21.89
70089;HTU21D;57460;47.134;19.888;2022-08-01T10:54:24;34.42;21.19
70089;HTU21D;57460;47.134;19.888;2022-08-01T10:56:51;34.52;22.63
70089;HTU21D;57460;47.134;19.888;2022-08-01T10:59:22;34.52;22.98
70089;HTU21D;57460;47.134;19.888;2022-08-01T11:02:03;34.56;23.62
70089;HTU21D;57460;47.134;19.888;2022-08-01T11:04:51;34.50;21.61
70089;HTU21D;57460;47.134;19.888;2022-08-01T11:07:40;34.06;22.20
70089;HTU21D;57460;47.134;19.888;2022-08-01T11:12:46;33.80;22.15
70089;HTU21D;57460;47.134;19.888;2022-08-01T11:17:40;33.65;21.87
70089;HTU21D;57460;47.134;19.888;2022-08-01T11:20:25;33.87;22.54
70089;HTU21D;57460;47.134;19.888;2022-08-01T11:30:43;34.08;22.72
70089;HTU21D;57460;47.134;19.888;2022-08-01T11:33:10;34.32;22.71
70089;HTU21D;57460;47.134;19.888;2022-08-01T11:35:37;34.40;22.79
70089;HTU21D;57460;47.134;19.888;2022-08-01T11:38:25;34.57;21.80
70089;HTU21D;57460;47.134;19.888;2022-08-01T11:41:16;34.67;21.19
70089;HTU21D;57460;47.134;19.888;2022-08-01T11:44:09;34.61;21.15
70089;HTU21D;57460;47.134;19.888;2022-08-01T11:46:55;34.44;21.38
70089;HTU21D;57460;47.134;19.888;2022-08-01T11:54:48;34.83;19.90
70089;HTU21D;57460;47.134;19.888;2022-08-01T11:57:21;34.66;20.25
70089;HTU21D;57460;47.134;19.888;2022-08-01T12:02:26;34.46;19.95
70089;HTU21D;57460;47.134;19.888;2022-08-01T12:05:15;34.19;19.86
70089;HTU21D;57460;47.134;19.888;2022-08-01T12:07:44;34.11;21.02
70089;HTU21D;57460;47.134;19.888;2022-08-01T12:10:14;34.30;21.19
70089;HTU21D;57460;47.134;19.888;2022-08-01T12:12:48;34.81;20.85
70089;HTU21D;57460;47.134;19.888;2022-08-01T12:15:16;34.93;21.24
70089;HTU21D;57460;47.134;19.888;2022-08-01T12:17:56;35.08;19.34
70089;HTU21D;57460;47.134;19.888;2022-08-01T12:20:23;35.07;20.46
70089;HTU21D;57460;47.134;19.888;2022-08-01T12:22:54;34.99;19.06
70089;HTU21D;57460;47.134;19.888;2022-08-01T12:25:20;34.94;21.23
70089;HTU21D;57460;47.134;19.888;2022-08-01T12:27:47;34.93;21.32
70089;HTU21D;57460;47.134;19.888;2022-08-01T12:30:16;34.86;19.63
70089;HTU21D;57460;47.134;19.888;2022-08-01T12:32:45;34.77;21.00
70089;HTU21D;57460;47.134;19.888;2022-08-01T12:35:20;34.53;21.47
70089;HTU21D;57460;47.134;19.888;2022-08-01T12:37:53;34.31;21.51
70089;HTU21D;57460;47.134;19.888;2022-08-01T12:42:49;34.52;21.72
70089;HTU21D;57460;47.134;19.888;2022-08-01T12:45:19;34.56;21.92
70089;HTU21D;57460;47.134;19.888;2022-08-01T12:47:46;34.45;22.24
70089;HTU21D;57460;47.134;19.888;2022-08-01T12:50:16;34.78;21.90
70089;HTU21D;57460;47.134;19.888;2022-08-01T12:52:44;35.04;21.42
70089;HTU21D;57460;47.134;19.888;2022-08-01T12:55:13;35.42;20.67
70089;HTU21D;57460;47.134;19.888;2022-08-01T12:57:43;35.40;19.75
70089;HTU21D;57460;47.134;19.888;2022-08-01T13:00:27;35.22;20.13
70089;HTU21D;57460;47.134;19.888;2022-08-01T13:08:19;35.53;20.96
70089;HTU21D;57460;47.134;19.888;2022-08-01T13:10:45;35.87;20.12
70089;HTU21D;57460;47.134;19.888;2022-08-01T13:13:13;35.94;19.66
70089;HTU21D;57460;47.134;19.888;2022-08-01T13:15:41;35.55;20.05
70089;HTU21D;57460;47.134;19.888;2022-08-01T13:18:30;35.31;20.47
70089;HTU21D;57460;47.134;19.888;2022-08-01T13:23:40;35.44;19.96
70089;HTU21D;57460;47.134;19.888;2022-08-01T13:26:06;35.23;18.71
70089;HTU21D;57460;47.134;19.888;2022-08-01T13:28:33;35.51;19.76
70089;HTU21D;57460;47.134;19.888;2022-08-01T13:31:04;35.44;20.42
70089;HTU21D;57460;47.134;19.888;2022-08-01T13:33:45;35.33;18.82
70089;HTU21D;57460;47.134;19.888;2022-08-01T13:36:11;35.12;19.14
70089;HTU21D;57460;47.134;19.888;2022-08-01T13:38:39;35.37;20.28
70089;HTU21D;57460;47.134;19.888;2022-08-01T13:41:23;35.37;19.54
70089;HTU21D;57460;47.134;19.888;2022-08-01T13:43:49;35.36;18.96
70089;HTU21D;57460;47.134;19.888;2022-08-01T13:46:15;35.14;17.36
70089;HTU21D;57460;47.134;19.888;2022-08-01T13:48:41;35.41;17.96
70089;HTU21D;57460;47.134;19.888;2022-08-01T13:51:08;35.20;18.51
70089;HTU21D;57460;47.134;19.888;2022-08-01T13:53:34;35.11;18.27
70089;HTU21D;57460;47.134;19.888;2022-08-01T13:56:00;35.12;18.22
70089;HTU21D;57460;47.134;19.888;2022-08-01T13:58:26;35.06;17.38
70089;HTU21D;57460;47.134;19.888;2022-08-01T14:00:54;35.09;17.99
70089;HTU21D;57460;47.134;19.888;2022-08-01T14:03:21;35.08;17.80
70089;HTU21D;57460;47.134;19.888;2022-08-01T14:05:47;34.92;18.28
70089;HTU21D;57460;47.134;19.888;2022-08-01T14:08:13;35.06;17.87
70089;HTU21D;57460;47.134;19.888;2022-08-01T14:10:38;34.93;18.52
70089;HTU21D;57460;47.134;19.888;2022-08-01T14:13:04;35.04;18.67
70089;HTU21D;57460;47.134;19.888;2022-08-01T14:15:31;35.06;18.87
70089;HTU21D;57460;47.134;19.888;2022-08-01T14:17:58;34.99;18.64
70089;HTU21D;57460;47.134;19.888;2022-08-01T14:20:24;34.95;18.68
70089;HTU21D;57460;47.134;19.888;2022-08-01T14:22:50;34.96;19.15
70089;HTU21D;57460;47.134;19.888;2022-08-01T14:25:15;34.97;19.04
70089;HTU21D;57460;47.134;19.888;2022-08-01T14:27:44;35.03;18.71
70089;HTU21D;57460;47.134;19.888;2022-08-01T14:30:11;34.96;18.58
70089;HTU21D;57460;47.134;19.888;2022-08-01T14:32:37;34.71;19.16
70089;HTU21D;57460;47.134;19.888;2022-08-01T14:35:05;34.68;19.32
70089;HTU21D;57460;47.134;19.888;2022-08-01T14:37:32;34.59;18.54
70089;HTU21D;57460;47.134;19.888;2022-08-01T14:39:59;34.74;18.91
70089;HTU21D;57460;47.134;19.888;2022-08-01T14:42:25;34.63;19.03
70089;HTU21D;57460;47.134;19.888;2022-08-01T14:44:51;34.71;18.44
70089;HTU21D;57460;47.134;19.888;2022-08-01T14:47:17;34.80;18.05
70089;HTU21D;57460;47.134;19.888;2022-08-01T14:49:43;34.66;18.31
70089;HTU21D;57460;47.134;19.888;2022-08-01T14:52:08;34.70;17.99
70089;HTU21D;57460;47.134;19.888;2022-08-01T14:54:34;34.51;18.21
70089;HTU21D;57460;47.134;19.888;2022-08-01T14:57:00;34.35;18.28
70089;HTU21D;57460;47.134;19.888;2022-08-01T14:59:25;34.38;18.59
70089;HTU21D;57460;47.134;19.888;2022-08-01T15:01:51;34.36;18.31
70089;HTU21D;57460;47.134;19.888;2022-08-01T15:04:17;34.23;18.48
70089;HTU21D;57460;47.134;19.888;2022-08-01T15:06:43;34.34;18.96
70089;HTU21D;57460;47.134;19.888;2022-08-01T15:09:09;34.26;19.23
70089;HTU21D;57460;47.134;19.888;2022-08-01T15:11:36;34.00;18.57
70089;HTU21D;57460;47.134;19.888;2022-08-01T15:14:02;34.08;19.41
70089;HTU21D;57460;47.134;19.888;2022-08-01T15:16:47;34.04;18.39
70089;HTU21D;57460;47.134;19.888;2022-08-01T15:19:14;34.03;18.46
70089;HTU21D;57460;47.134;19.888;2022-08-01T15:21:40;33.70;19.37
70089;HTU21D;57460;47.134;19.888;2022-08-01T15:24:06;33.76;19.26
70089;HTU21D;57460;47.134;19.888;2022-08-01T15:26:31;33.71;19.13
70089;HTU21D;57460;47.134;19.888;2022-08-01T15:28:57;33.70;19.68
70089;HTU21D;57460;47.134;19.888;2022-08-01T15:31:23;33.82;19.86
70089;HTU21D;57460;47.134;19.888;2022-08-01T15:33:49;33.99;19.54
70089;HTU21D;57460;47.134;19.888;2022-08-01T15:36:15;34.05;19.90
70089;HTU21D;57460;47.134;19.888;2022-08-01T15:38:41;33.87;20.45
70089;HTU21D;57460;47.134;19.888;2022-08-01T15:41:06;33.82;20.43
70089;HTU21D;57460;47.134;19.888;2022-08-01T15:43:32;33.83;20.94
70089;HTU21D;57460;47.134;19.888;2022-08-01T15:45:59;33.60;21.18
70089;HTU21D;57460;47.134;19.888;2022-08-01T15:48:25;33.56;21.53
70089;HTU21D;57460;47.134;19.888;2022-08-01T15:50:51;33.53;21.50
70089;HTU21D;57460;47.134;19.888;2022-08-01T15:53:16;33.50;21.44
70089;HTU21D;57460;47.134;19.888;2022-08-01T15:55:42;33.27;21.28
70089;HTU21D;57460;47.134;19.888;2022-08-01T15:58:08;33.14;21.76
70089;HTU21D;57460;47.134;19.888;2022-08-01T16:00:34;32.99;22.02
70089;HTU21D;57460;47.134;19.888;2022-08-01T16:03:00;33.01;21.91
70089;HTU21D;57460;47.134;19.888;2022-08-01T16:05:26;32.79;22.11
70089;HTU21D;57460;47.134;19.888;2022-08-01T16:07:51;32.66;22.56
70089;HTU21D;57460;47.134;19.888;2022-08-01T16:10:17;32.76;22.23
70089;HTU21D;57460;47.134;19.888;2022-08-01T16:12:43;32.78;21.95
70089;HTU21D;57460;47.134;19.888;2022-08-01T16:15:09;32.75;22.20
70089;HTU21D;57460;47.134;19.888;2022-08-01T16:17:35;32.73;22.11
70089;HTU21D;57460;47.134;19.888;2022-08-01T16:20:01;32.63;22.28